Time;durP1;ratioP1;P1;durP2;ratioP2;P2;SDS_P1;SDS_P2;PMS_P1;PMS_P2;Temp;Humidity;BMP_temperature;BMP_pressure;BME280_temperature;BME280_humidity;BME280_pressure;Samples;Min_cycle;Max_cycle;Signal;HPM_P1;HPM_P2
2022/07/30 00:00:07;;;;;;;4.80;3.72;;;22.90;73.20;;;;;;5111372;28;20111;-72
2022/07/30 00:02:33;;;;;;;3.88;3.58;;;22.90;73.00;;;;;;5110652;28;20064;-70
2022/07/30 00:04:59;;;;;;;9.52;3.50;;;22.90;73.10;;;;;;5111195;28;20015;-72
2022/07/30 00:07:24;;;;;;;3.75;3.35;;;22.90;73.40;;;;;;5111172;28;20103;-70
2022/07/30 00:09:50;;;;;;;9.70;4.00;;;22.90;73.40;;;;;;5111101;28;20431;-70
2022/07/30 00:12:16;;;;;;;4.72;3.90;;;23.00;73.10;;;;;;5112517;28;20024;-71
2022/07/30 00:14:41;;;;;;;7.55;4.70;;;22.90;72.80;;;;;;5112338;28;20012;-72
2022/07/30 00:17:08;;;;;;;3.90;3.42;;;22.90;72.50;;;;;;5110911;28;20034;-71
2022/07/30 00:19:34;;;;;;;4.30;3.53;;;22.90;71.70;;;;;;5112293;28;20098;-71
2022/07/30 00:21:59;;;;;;;3.17;2.63;;;22.90;71.90;;;;;;5112134;28;20123;-71
2022/07/30 00:24:25;;;;;;;4.35;2.70;;;22.90;72.40;;;;;;5111926;28;20024;-71
2022/07/30 00:26:51;;;;;;;3.30;3.00;;;22.90;72.80;;;;;;5112309;28;20068;-71
2022/07/30 00:29:17;;;;;;;3.03;2.60;;;22.90;72.60;;;;;;5110948;28;20512;-71
2022/07/30 00:31:42;;;;;;;5.72;3.00;;;22.90;72.40;;;;;;5112181;28;20020;-72
2022/07/30 00:34:08;;;;;;;3.25;2.83;;;22.90;72.20;;;;;;5109162;28;20494;-70
2022/07/30 00:36:34;;;;;;;3.30;3.00;;;22.90;71.90;;;;;;5112330;28;20012;-71
2022/07/30 00:39:00;;;;;;;3.00;2.65;;;22.90;71.90;;;;;;5111499;28;20047;-71
2022/07/30 00:41:26;;;;;;;2.95;2.47;;;22.90;71.80;;;;;;5109781;28;20048;-71
2022/07/30 00:43:51;;;;;;;2.65;2.45;;;22.80;71.30;;;;;;5111902;28;20020;-71
2022/07/30 00:46:17;;;;;;;4.45;2.42;;;22.80;71.40;;;;;;5112026;28;20020;-70
2022/07/30 00:48:44;;;;;;;2.47;2.28;;;22.80;71.50;;;;;;5110793;28;20027;-72
2022/07/30 00:51:09;;;;;;;4.47;2.30;;;22.80;71.50;;;;;;5112443;28;20031;-70
2022/07/30 00:53:35;;;;;;;3.22;2.95;;;22.80;71.80;;;;;;5112011;28;20027;-70
2022/07/30 00:56:01;;;;;;;2.50;2.30;;;22.80;71.30;;;;;;5110620;28;20073;-70
2022/07/30 00:58:28;;;;;;;2.80;2.42;;;22.80;71.20;;;;;;5111878;28;20019;-72
2022/07/30 01:00:54;;;;;;;3.42;2.78;;;22.80;71.40;;;;;;5109231;28;20469;-71
2022/07/30 01:03:19;;;;;;;2.42;2.15;;;22.80;71.40;;;;;;5110818;28;20024;-71
2022/07/30 01:05:45;;;;;;;2.70;2.40;;;22.80;71.00;;;;;;5111650;28;20023;-71
2022/07/30 01:08:11;;;;;;;3.55;2.95;;;22.80;71.50;;;;;;5111543;28;20441;-71
2022/07/30 01:10:37;;;;;;;3.10;2.45;;;22.80;71.30;;;;;;5111800;28;20055;-71
2022/07/30 01:13:04;;;;;;;3.75;2.80;;;22.80;72.10;;;;;;5111991;28;20024;-70
2022/07/30 01:15:30;;;;;;;3.05;2.72;;;22.80;71.40;;;;;;5109986;28;20096;-72
2022/07/30 01:18:00;;;;;;;4.57;2.85;;;22.80;71.70;;;;;;5111717;28;20396;-70
2022/07/30 01:20:32;;;;;;;3.40;2.78;;;22.80;72.00;;;;;;5111596;28;20012;-71
2022/07/30 01:23:12;;;;;;;3.33;3.03;;;22.90;72.20;;;;;;5107183;28;20063;-72
2022/07/30 01:25:50;;;;;;;3.80;3.40;;;22.80;71.90;;;;;;5109595;28;20068;-73
2022/07/30 01:28:21;;;;;;;3.55;2.70;;;22.90;71.40;;;;;;5108081;28;20024;-71
2022/07/30 01:30:48;;;;;;;4.80;3.28;;;22.90;71.50;;;;;;5111666;28;20024;-72
2022/07/30 01:33:16;;;;;;;4.28;3.88;;;22.90;71.30;;;;;;5110307;28;20511;-72
2022/07/30 01:35:45;;;;;;;5.00;3.78;;;22.80;71.40;;;;;;5111471;28;20361;-71
2022/07/30 01:38:12;;;;;;;3.53;3.15;;;22.80;71.50;;;;;;5111415;28;20375;-70
2022/07/30 01:40:41;;;;;;;3.67;3.38;;;22.90;71.30;;;;;;5110158;28;20024;-72
2022/07/30 01:43:08;;;;;;;3.75;3.20;;;22.90;71.20;;;;;;5111444;28;20020;-74
2022/07/30 01:45:35;;;;;;;4.90;3.58;;;22.90;71.40;;;;;;5106686;28;20048;-70
2022/07/30 01:48:03;;;;;;;3.65;3.35;;;22.90;71.70;;;;;;5111390;28;20048;-71
2022/07/30 01:50:30;;;;;;;4.82;3.45;;;22.80;71.70;;;;;;5112740;28;20020;-70
2022/07/30 01:52:56;;;;;;;9.27;3.20;;;22.80;71.50;;;;;;5113152;28;20130;-71
2022/07/30 01:55:29;;;;;;;3.45;3.15;;;22.80;71.00;;;;;;5114876;28;20023;-72
2022/07/30 01:57:57;;;;;;;4.38;3.78;;;22.80;71.00;;;;;;5112597;28;20034;-72
2022/07/30 02:00:25;;;;;;;4.10;3.70;;;22.80;71.10;;;;;;5114981;28;20019;-72
2022/07/30 02:02:51;;;;;;;3.75;3.40;;;22.80;71.30;;;;;;5114905;28;20008;-70
2022/07/30 02:05:17;;;;;;;3.83;3.13;;;22.80;71.50;;;;;;5114942;28;20377;-71
2022/07/30 02:07:55;;;;;;;3.63;3.33;;;22.80;71.60;;;;;;5114992;28;20120;-72
2022/07/30 02:10:44;;;;;;;6.50;4.00;;;22.80;71.30;;;;;;5113145;28;20422;-72
2022/07/30 02:13:13;;;;;;;4.45;3.78;;;22.80;71.50;;;;;;5114312;28;20031;-71
2022/07/30 02:15:55;;;;;;;6.50;4.55;;;22.80;71.40;;;;;;5114696;28;20026;-73
2022/07/30 02:18:42;;;;;;;3.92;3.60;;;22.80;71.60;;;;;;5111560;28;20499;-72
2022/07/30 02:21:09;;;;;;;4.47;3.80;;;22.80;71.60;;;;;;5113565;28;20044;-70
2022/07/30 02:23:39;;;;;;;4.20;3.65;;;22.80;71.70;;;;;;5112721;28;20040;-71
2022/07/30 02:26:07;;;;;;;8.35;3.97;;;22.80;71.20;;;;;;5114530;28;20065;-73
2022/07/30 02:28:38;;;;;;;4.50;3.55;;;22.70;70.30;;;;;;5114444;28;20012;-73
2022/07/30 02:31:07;;;;;;;4.03;3.63;;;22.70;70.10;;;;;;5114561;28;20031;-72
2022/07/30 02:33:37;;;;;;;5.78;3.25;;;22.60;70.20;;;;;;5111614;28;20035;-71
2022/07/30 02:36:05;;;;;;;4.32;3.92;;;22.60;70.30;;;;;;5114348;28;20380;-71
2022/07/30 02:38:31;;;;;;;3.50;3.20;;;22.60;70.60;;;;;;5112931;28;20354;-71
2022/07/30 02:41:00;;;;;;;6.43;3.35;;;22.60;70.70;;;;;;5114344;28;20080;-70
2022/07/30 02:43:28;;;;;;;4.40;3.47;;;22.60;70.60;;;;;;5114190;28;20468;-71
2022/07/30 02:45:56;;;;;;;7.07;3.40;;;22.50;70.70;;;;;;5108976;28;20068;-71
2022/07/30 02:48:23;;;;;;;5.85;3.33;;;22.50;70.20;;;;;;5114113;28;20091;-71
2022/07/30 02:50:52;;;;;;;5.05;3.10;;;22.50;70.40;;;;;;5114062;28;20354;-71
2022/07/30 02:53:20;;;;;;;4.18;3.13;;;22.40;70.20;;;;;;5112642;28;20028;-71
2022/07/30 02:55:48;;;;;;;3.35;2.97;;;22.40;70.50;;;;;;5114135;28;20368;-70
2022/07/30 02:58:24;;;;;;;3.72;3.00;;;22.40;70.80;;;;;;5110936;28;20020;-72
2022/07/30 03:00:52;;;;;;;3.45;3.15;;;22.40;71.00;;;;;;5113572;28;20023;-72
2022/07/30 03:03:19;;;;;;;3.42;3.13;;;22.40;71.20;;;;;;5111765;28;20022;-71
2022/07/30 03:05:50;;;;;;;3.45;3.13;;;22.30;70.70;;;;;;5113508;28;20435;-71
2022/07/30 03:08:16;;;;;;;5.90;3.03;;;22.40;71.00;;;;;;5110972;28;20115;-72
2022/07/30 03:10:45;;;;;;;5.15;2.72;;;22.30;71.30;;;;;;5112221;28;20503;-73
2022/07/30 03:13:12;;;;;;;3.55;2.70;;;22.30;71.50;;;;;;5113406;28;20415;-70
2022/07/30 03:15:44;;;;;;;4.53;3.20;;;22.30;72.10;;;;;;5113559;28;20485;-72
2022/07/30 03:18:13;;;;;;;5.25;3.10;;;22.30;72.90;;;;;;5113281;28;20437;-70
2022/07/30 03:20:39;;;;;;;2.95;2.65;;;22.30;73.10;;;;;;5113207;28;20063;-70
2022/07/30 03:23:06;;;;;;;3.97;3.22;;;22.30;73.50;;;;;;5113101;28;20420;-72
2022/07/30 03:25:34;;;;;;;3.40;2.95;;;22.20;73.70;;;;;;5113261;28;20076;-71
2022/07/30 03:28:03;;;;;;;5.85;3.80;;;22.20;73.90;;;;;;5113261;28;20027;-72
2022/07/30 03:30:30;;;;;;;3.85;3.05;;;22.10;73.90;;;;;;5113212;28;20023;-72
2022/07/30 03:32:56;;;;;;;2.92;2.70;;;22.10;73.90;;;;;;5110603;28;20034;-71
2022/07/30 03:35:26;;;;;;;3.80;3.35;;;22.00;73.90;;;;;;5111789;28;20396;-73
2022/07/30 03:37:54;;;;;;;4.13;3.72;;;22.00;74.30;;;;;;5112934;28;20099;-70
2022/07/30 03:40:21;;;;;;;3.63;3.13;;;22.00;74.50;;;;;;5112981;28;20019;-73
2022/07/30 03:42:48;;;;;;;3.75;3.45;;;22.00;74.60;;;;;;5112561;28;20488;-72
2022/07/30 03:45:15;;;;;;;5.63;3.65;;;22.00;74.70;;;;;;5113183;28;20043;-72
2022/07/30 03:47:43;;;;;;;3.65;3.33;;;21.90;74.80;;;;;;5112797;28;20016;-72
2022/07/30 03:50:11;;;;;;;4.15;3.28;;;21.90;74.90;;;;;;5112823;28;20020;-70
2022/07/30 03:52:39;;;;;;;5.03;3.90;;;21.90;74.60;;;;;;5110034;28;20388;-71
2022/07/30 03:55:08;;;;;;;5.03;3.70;;;21.90;74.70;;;;;;5112771;28;20028;-71
2022/07/30 03:57:35;;;;;;;5.75;3.17;;;21.90;74.70;;;;;;5112865;28;20015;-70
2022/07/30 04:00:01;;;;;;;5.68;3.05;;;21.90;74.90;;;;;;5112652;28;20023;-70
2022/07/30 04:02:27;;;;;;;2.88;2.55;;;21.90;74.90;;;;;;5112727;28;20112;-72
2022/07/30 04:04:53;;;;;;;5.30;3.55;;;21.90;74.80;;;;;;5111266;28;20496;-71
2022/07/30 04:07:19;;;;;;;3.22;2.92;;;21.90;75.00;;;;;;5111363;28;20586;-72
2022/07/30 04:09:44;;;;;;;4.10;3.63;;;22.00;75.00;;;;;;5111161;28;20108;-72
2022/07/30 04:12:12;;;;;;;11.05;3.40;;;21.90;74.70;;;;;;5112506;28;20388;-72
2022/07/30 04:14:41;;;;;;;3.97;2.90;;;21.90;74.70;;;;;;5111739;28;20098;-72
2022/07/30 04:17:36;;;;;;;3.65;2.90;;;21.90;74.80;;;;;;5111143;28;20027;-73
2022/07/30 04:20:08;;;;;;;3.88;3.50;;;22.00;74.70;;;;;;5101706;28;20126;-70
2022/07/30 04:22:36;;;;;;;2.90;2.65;;;21.90;74.80;;;;;;5108010;28;20050;-71
2022/07/30 04:25:05;;;;;;;2.90;2.70;;;21.90;74.10;;;;;;5108191;28;20021;-71
2022/07/30 04:27:32;;;;;;;4.28;2.58;;;21.90;74.10;;;;;;5112044;28;20102;-71
2022/07/30 04:29:58;;;;;;;6.13;3.00;;;22.00;74.50;;;;;;5110881;28;20027;-71
2022/07/30 04:32:25;;;;;;;4.38;2.90;;;21.90;74.10;;;;;;5112179;28;20469;-71
2022/07/30 04:34:52;;;;;;;3.15;2.65;;;21.90;74.30;;;;;;5110760;28;20077;-72
2022/07/30 04:37:22;;;;;;;2.85;2.60;;;21.90;74.10;;;;;;5110793;28;20062;-72
2022/07/30 04:39:52;;;;;;;3.58;2.83;;;21.90;74.20;;;;;;5110674;28;20027;-70
2022/07/30 04:42:19;;;;;;;4.00;2.85;;;21.90;73.70;;;;;;5111207;28;20350;-73
2022/07/30 04:44:45;;;;;;;3.80;3.30;;;21.90;73.40;;;;;;5111935;28;20015;-70
2022/07/30 04:47:11;;;;;;;2.97;2.78;;;21.90;73.30;;;;;;5111804;28;20012;-71
2022/07/30 04:49:37;;;;;;;3.10;2.63;;;21.90;73.40;;;;;;5111925;28;20068;-71
2022/07/30 04:52:04;;;;;;;2.97;2.78;;;21.90;73.60;;;;;;5111923;28;20023;-70
2022/07/30 04:54:45;;;;;;;3.13;2.63;;;21.90;73.60;;;;;;5111008;28;20522;-70
2022/07/30 04:57:13;;;;;;;2.80;2.55;;;21.90;73.80;;;;;;5109913;28;20059;-71
2022/07/30 04:59:39;;;;;;;2.58;2.25;;;21.90;73.90;;;;;;5111718;28;20435;-72
2022/07/30 05:02:07;;;;;;;3.80;2.75;;;21.90;73.70;;;;;;5111935;28;20024;-72
2022/07/30 05:04:35;;;;;;;3.67;2.80;;;21.90;73.90;;;;;;5111893;28;20012;-73
2022/07/30 05:07:02;;;;;;;2.95;2.58;;;21.90;73.90;;;;;;5111843;28;20380;-71
2022/07/30 05:09:29;;;;;;;3.40;2.78;;;21.90;73.60;;;;;;5109375;28;20490;-72
2022/07/30 05:11:56;;;;;;;3.35;2.90;;;22.00;73.70;;;;;;5110702;28;20376;-71
2022/07/30 05:14:23;;;;;;;3.15;2.65;;;22.00;73.80;;;;;;5111772;28;20035;-72
2022/07/30 05:16:49;;;;;;;2.92;2.63;;;22.00;74.00;;;;;;5111963;28;20145;-72
2022/07/30 05:19:17;;;;;;;7.70;3.25;;;22.10;74.30;;;;;;5111787;28;20464;-70
2022/07/30 05:21:43;;;;;;;2.72;2.53;;;22.10;74.00;;;;;;5111625;28;20063;-71
2022/07/30 05:24:09;;;;;;;3.00;2.42;;;22.20;73.70;;;;;;5109234;28;20042;-70
2022/07/30 05:26:35;;;;;;;5.13;2.63;;;22.20;73.60;;;;;;5114146;28;20027;-71
2022/07/30 05:29:01;;;;;;;3.22;2.55;;;22.20;73.50;;;;;;5114379;27;20028;-72
2022/07/30 05:31:27;;;;;;;5.97;2.40;;;22.20;72.90;;;;;;5115045;28;20465;-72
2022/07/30 05:33:53;;;;;;;5.28;2.92;;;22.20;73.20;;;;;;5111888;28;20028;-71
2022/07/30 05:36:19;;;;;;;3.28;2.85;;;22.30;73.40;;;;;;5116065;28;20019;-71
2022/07/30 05:38:46;;;;;;;3.00;2.80;;;22.30;72.80;;;;;;5104166;28;20059;-72
2022/07/30 05:41:12;;;;;;;6.93;3.35;;;22.30;72.80;;;;;;5111197;28;20502;-70
2022/07/30 05:43:38;;;;;;;3.08;2.78;;;22.30;73.20;;;;;;5116516;28;20094;-71
2022/07/30 05:46:03;;;;;;;3.67;2.58;;;22.40;72.90;;;;;;5112422;28;20018;-72
2022/07/30 05:48:31;;;;;;;4.43;2.95;;;22.40;73.00;;;;;;5116353;28;20016;-72
2022/07/30 05:50:56;;;;;;;3.67;2.60;;;22.40;72.90;;;;;;5115076;28;20039;-71
2022/07/30 05:53:22;;;;;;;4.93;3.28;;;22.50;72.60;;;;;;5096918;28;20031;-72
2022/07/30 05:55:48;;;;;;;7.85;3.85;;;22.50;72.60;;;;;;5111721;28;20038;-72
2022/07/30 05:58:14;;;;;;;3.72;3.00;;;22.60;72.70;;;;;;5116400;28;20481;-69
2022/07/30 06:00:39;;;;;;;4.85;3.00;;;22.60;72.80;;;;;;5109961;28;20047;-71
2022/07/30 06:03:05;;;;;;;3.58;3.17;;;22.70;73.00;;;;;;5116427;28;20076;-72
2022/07/30 06:05:31;;;;;;;3.80;3.50;;;22.70;73.10;;;;;;5114983;28;20023;-72
2022/07/30 06:07:57;;;;;;;3.58;2.70;;;22.70;72.60;;;;;;5111720;28;20519;-70
2022/07/30 06:10:23;;;;;;;4.35;3.00;;;22.80;72.40;;;;;;5096147;28;20122;-70
2022/07/30 06:12:48;;;;;;;4.15;2.65;;;22.80;71.90;;;;;;5095887;28;20489;-72
2022/07/30 06:15:14;;;;;;;3.22;2.92;;;22.90;72.10;;;;;;5110371;27;20484;-73
2022/07/30 06:17:42;;;;;;;4.40;2.80;;;22.90;72.20;;;;;;5136736;27;20027;-71
2022/07/30 06:20:12;;;;;;;2.72;2.45;;;22.90;71.90;;;;;;5102362;27;20024;-70
2022/07/30 06:22:38;;;;;;;2.88;2.65;;;23.00;72.40;;;;;;5095782;28;20040;-72
2022/07/30 06:25:05;;;;;;;3.13;2.45;;;23.10;72.80;;;;;;5095684;28;20028;-70
2022/07/30 06:27:32;;;;;;;3.67;2.75;;;23.10;72.00;;;;;;5095618;28;20020;-71
2022/07/30 06:30:02;;;;;;;4.03;3.08;;;23.20;71.90;;;;;;5128698;27;20038;-71
2022/07/30 06:32:28;;;;;;;7.78;2.40;;;23.30;71.20;;;;;;5136256;27;20102;-71
2022/07/30 06:34:54;;;;;;;2.63;2.42;;;23.40;71.40;;;;;;5115130;27;20128;-73
2022/07/30 06:37:20;;;;;;;2.67;2.47;;;23.40;71.20;;;;;;5094366;28;20099;-72
2022/07/30 06:39:46;;;;;;;3.00;2.70;;;23.50;71.50;;;;;;5095261;28;20024;-72
2022/07/30 06:42:12;;;;;;;2.78;2.53;;;23.60;71.40;;;;;;5095302;28;20055;-70
2022/07/30 06:44:37;;;;;;;5.45;2.80;;;23.70;71.30;;;;;;5130755;27;20054;-70
2022/07/30 06:47:03;;;;;;;2.88;2.38;;;23.70;70.30;;;;;;5136139;27;20432;-71
2022/07/30 06:49:36;;;;;;;5.30;3.00;;;23.80;69.80;;;;;;5129832;27;20388;-72
2022/07/30 06:52:03;;;;;;;2.55;2.30;;;23.80;68.70;;;;;;5095180;28;20054;-71
2022/07/30 06:54:29;;;;;;;5.55;2.90;;;23.80;68.90;;;;;;5098961;28;20030;-72
2022/07/30 06:56:54;;;;;;;2.80;2.38;;;23.90;68.90;;;;;;5115454;28;20027;-70
2022/07/30 06:59:20;;;;;;;3.05;2.47;;;23.90;68.20;;;;;;5114462;28;20059;-71
2022/07/30 07:01:46;;;;;;;2.42;2.20;;;23.90;68.60;;;;;;5115268;28;20075;-71
2022/07/30 07:04:12;;;;;;;3.70;2.92;;;24.00;69.30;;;;;;5115269;28;20016;-71
2022/07/30 07:06:38;;;;;;;4.95;2.85;;;23.90;66.90;;;;;;5115222;28;20023;-70
2022/07/30 07:09:04;;;;;;;3.05;2.75;;;24.00;68.10;;;;;;5115176;28;20106;-71
2022/07/30 07:11:30;;;;;;;3.25;2.33;;;24.10;68.90;;;;;;5115206;28;20023;-70
2022/07/30 07:13:56;;;;;;;3.00;2.70;;;24.10;69.00;;;;;;5115070;28;20031;-71
2022/07/30 07:16:24;;;;;;;4.15;2.75;;;24.20;67.00;;;;;;5114992;28;20028;-71
2022/07/30 07:18:53;;;;;;;5.18;2.67;;;24.30;67.80;;;;;;5098421;28;20457;-72
2022/07/30 07:21:19;;;;;;;3.75;3.00;;;24.30;68.30;;;;;;5127232;27;20035;-71
2022/07/30 07:23:48;;;;;;;3.08;2.78;;;24.40;67.80;;;;;;5124675;27;20042;-70
2022/07/30 07:26:14;;;;;;;3.63;2.50;;;24.50;67.10;;;;;;5135408;27;20353;-72
2022/07/30 07:28:41;;;;;;;3.42;3.08;;;24.60;68.40;;;;;;5129902;27;20072;-71
2022/07/30 07:31:08;;;;;;;2.55;2.35;;;24.70;68.20;;;;;;5114798;28;20024;-72
2022/07/30 07:33:34;;;;;;;3.05;2.33;;;24.90;67.90;;;;;;5114657;28;20024;-71
2022/07/30 07:36:00;;;;;;;3.90;2.75;;;25.00;67.30;;;;;;5114286;28;20031;-71
2022/07/30 07:38:26;;;;;;;4.97;2.65;;;25.10;66.50;;;;;;5100880;28;20028;-71
2022/07/30 07:40:52;;;;;;;2.70;2.40;;;25.20;65.00;;;;;;5094129;28;20027;-70
2022/07/30 07:43:18;;;;;;;3.22;2.85;;;25.30;65.90;;;;;;5092803;28;20435;-71
2022/07/30 07:45:46;;;;;;;3.40;2.83;;;25.30;64.30;;;;;;5094030;28;20104;-71
2022/07/30 07:48:12;;;;;;;6.15;3.17;;;25.40;64.50;;;;;;5093897;28;20027;-72
2022/07/30 07:50:38;;;;;;;3.75;2.65;;;25.40;63.10;;;;;;5107142;28;20384;-72
2022/07/30 07:53:05;;;;;;;3.30;2.85;;;25.40;63.90;;;;;;5106539;28;20036;-71
2022/07/30 07:55:31;;;;;;;3.63;3.20;;;25.50;63.40;;;;;;5092853;28;20494;-70
2022/07/30 07:57:57;;;;;;;4.85;3.10;;;25.40;62.20;;;;;;5093727;28;20078;-72
2022/07/30 08:00:23;;;;;;;3.67;3.33;;;25.40;61.40;;;;;;5094242;28;20099;-71
2022/07/30 08:02:49;;;;;;;10.50;3.00;;;25.40;62.20;;;;;;5112331;28;20019;-72
2022/07/30 08:05:15;;;;;;;4.07;3.42;;;25.40;63.10;;;;;;5112687;28;20023;-71
2022/07/30 08:07:42;;;;;;;6.32;2.88;;;25.40;63.50;;;;;;5112551;28;20033;-71
2022/07/30 08:10:09;;;;;;;3.40;3.10;;;25.40;63.20;;;;;;5112182;28;20527;-72
2022/07/30 08:12:36;;;;;;;3.10;2.80;;;25.50;63.90;;;;;;5111178;27;20036;-71
2022/07/30 08:15:03;;;;;;;3.28;2.95;;;25.50;64.10;;;;;;5113545;27;20023;-71
2022/07/30 08:17:29;;;;;;;5.00;3.30;;;25.50;64.70;;;;;;5113566;28;20034;-72
2022/07/30 08:19:59;;;;;;;9.02;3.53;;;25.60;63.30;;;;;;5110444;28;20023;-70
2022/07/30 08:22:25;;;;;;;4.18;3.03;;;25.60;63.50;;;;;;5110287;28;20094;-71
2022/07/30 08:24:50;;;;;;;3.47;2.67;;;25.70;62.50;;;;;;5112237;28;20051;-72
2022/07/30 08:27:16;;;;;;;3.45;3.05;;;25.80;62.90;;;;;;5116026;27;20016;-72
2022/07/30 08:29:42;;;;;;;5.32;2.83;;;25.80;62.50;;;;;;5121294;27;20084;-70
2022/07/30 08:32:08;;;;;;;3.45;3.15;;;25.80;62.00;;;;;;5110681;27;20016;-71
2022/07/30 08:34:34;;;;;;;3.70;3.40;;;25.80;61.30;;;;;;5110136;28;20051;-71
2022/07/30 08:36:59;;;;;;;4.38;3.95;;;25.80;61.50;;;;;;5109986;28;20051;-72
2022/07/30 08:39:25;;;;;;;7.32;3.78;;;25.80;61.20;;;;;;5111913;28;20028;-71
2022/07/30 08:41:51;;;;;;;5.32;3.80;;;25.80;61.30;;;;;;5112057;28;20399;-71
2022/07/30 08:44:18;;;;;;;7.85;3.63;;;25.80;60.60;;;;;;5111854;28;20016;-72
2022/07/30 08:46:46;;;;;;;4.07;3.67;;;25.80;61.00;;;;;;5111938;28;20027;-72
2022/07/30 08:49:13;;;;;;;4.50;3.55;;;25.70;60.60;;;;;;5110634;28;20022;-71
2022/07/30 08:51:39;;;;;;;4.25;3.88;;;25.70;60.00;;;;;;5111125;28;20106;-72
2022/07/30 08:54:05;;;;;;;6.10;4.68;;;25.60;60.60;;;;;;5108576;28;20031;-71
2022/07/30 08:56:32;;;;;;;10.80;4.32;;;25.60;60.20;;;;;;5111739;28;20019;-71
2022/07/30 08:58:59;;;;;;;5.82;4.28;;;25.60;59.40;;;;;;5110412;28;20034;-72
2022/07/30 09:01:25;;;;;;;6.68;4.47;;;25.60;60.30;;;;;;5110347;28;20043;-71
2022/07/30 09:03:51;;;;;;;4.53;4.13;;;25.60;61.00;;;;;;5116319;28;20015;-72
2022/07/30 09:06:17;;;;;;;6.13;4.28;;;25.60;61.80;;;;;;5115884;28;20349;-71
2022/07/30 09:08:43;;;;;;;8.07;4.50;;;25.70;60.70;;;;;;5116182;28;20034;-71
2022/07/30 09:11:08;;;;;;;7.38;4.57;;;25.80;61.90;;;;;;5115868;28;20076;-71
2022/07/30 09:13:37;;;;;;;4.32;3.92;;;25.90;61.10;;;;;;5113892;28;20028;-71
2022/07/30 09:16:04;;;;;;;5.03;4.50;;;26.10;61.40;;;;;;5116528;27;20055;-71
2022/07/30 09:18:36;;;;;;;5.72;3.60;;;26.20;61.00;;;;;;5113523;27;20012;-72
2022/07/30 09:21:19;;;;;;;5.28;4.30;;;26.40;60.20;;;;;;5114136;27;20051;-72
2022/07/30 09:24:03;;;;;;;5.57;4.20;;;26.40;59.20;;;;;;5112024;28;20023;-72
2022/07/30 09:26:31;;;;;;;4.47;4.05;;;26.50;59.10;;;;;;5112938;28;20066;-72
2022/07/30 09:29:31;;;;;;;7.43;4.55;;;26.40;58.00;;;;;;5115037;28;20377;-72
2022/07/30 09:32:02;;;;;;;8.15;4.53;;;26.30;57.60;;;;;;5052285;28;20513;-72
2022/07/30 09:34:35;;;;;;;5.32;4.50;;;26.20;57.10;;;;;;5035955;28;20430;-72
2022/07/30 09:37:22;;;;;;;4.50;4.10;;;26.00;56.30;;;;;;5050807;28;20559;-72
2022/07/30 09:39:48;;;;;;;4.70;4.00;;;26.00;57.80;;;;;;5050842;28;20036;-72
2022/07/30 09:42:23;;;;;;;7.13;4.40;;;25.90;58.40;;;;;;5049427;28;20033;-72
2022/07/30 09:44:49;;;;;;;5.28;4.65;;;25.90;57.80;;;;;;5050586;28;20479;-73
2022/07/30 09:47:38;;;;;;;7.10;4.32;;;25.90;58.00;;;;;;5051958;28;20036;-72
2022/07/30 09:50:09;;;;;;;9.20;4.35;;;25.90;59.00;;;;;;5052100;28;20037;-72
2022/07/30 09:52:36;;;;;;;6.18;4.32;;;26.00;58.30;;;;;;5048794;28;20033;-72
2022/07/30 09:55:04;;;;;;;5.93;4.70;;;26.00;57.70;;;;;;5052027;28;20126;-72
2022/07/30 09:57:30;;;;;;;7.43;4.78;;;26.00;56.20;;;;;;5052193;28;20191;-72
2022/07/30 10:00:00;;;;;;;5.63;4.88;;;26.00;56.90;;;;;;5051950;28;20021;-72
2022/07/30 10:02:30;;;;;;;7.70;4.80;;;25.90;56.40;;;;;;5034568;28;20104;-72
2022/07/30 10:05:18;;;;;;;5.13;4.65;;;26.00;56.80;;;;;;5052184;28;20390;-72
2022/07/30 10:08:13;;;;;;;8.63;4.57;;;26.00;57.20;;;;;;5088759;28;20038;-73
2022/07/30 10:10:39;;;;;;;5.40;4.80;;;26.10;57.40;;;;;;5101094;28;20036;-72
2022/07/30 10:13:07;;;;;;;7.13;4.20;;;26.20;56.70;;;;;;5107900;28;20036;-72
2022/07/30 10:15:34;;;;;;;4.53;4.13;;;26.30;58.10;;;;;;5110975;27;20030;-72
2022/07/30 10:18:05;;;;;;;5.55;4.22;;;26.50;57.90;;;;;;5122970;27;20023;-72
2022/07/30 10:20:31;;;;;;;4.75;4.25;;;26.70;58.10;;;;;;5121550;27;20176;-72
2022/07/30 10:22:57;;;;;;;5.00;4.10;;;26.80;56.90;;;;;;5123665;27;20027;-72
2022/07/30 10:25:25;;;;;;;5.05;4.50;;;26.90;55.80;;;;;;5126194;27;20031;-72
2022/07/30 10:27:51;;;;;;;6.68;4.78;;;27.00;56.30;;;;;;5115691;27;20485;-72
2022/07/30 10:30:17;;;;;;;4.22;3.83;;;27.10;53.90;;;;;;5113724;28;20058;-72
2022/07/30 10:32:44;;;;;;;4.53;3.80;;;27.10;54.90;;;;;;5111038;28;20488;-72
2022/07/30 10:35:11;;;;;;;5.20;4.28;;;27.10;55.60;;;;;;5111179;28;20024;-72
2022/07/30 10:37:43;;;;;;;4.40;3.80;;;27.20;54.80;;;;;;5113395;28;20518;-72
2022/07/30 10:40:32;;;;;;;4.32;3.85;;;27.30;54.20;;;;;;5113051;28;20068;-72
2022/07/30 10:43:20;;;;;;;4.03;3.65;;;27.20;54.40;;;;;;5111560;27;20027;-70
2022/07/30 10:45:58;;;;;;;6.75;5.13;;;27.20;55.30;;;;;;5113583;27;20102;-71
2022/07/30 10:48:24;;;;;;;5.28;3.80;;;27.30;53.20;;;;;;5112863;28;20016;-72
2022/07/30 10:50:52;;;;;;;5.78;4.32;;;27.30;52.60;;;;;;5113864;28;20357;-71
2022/07/30 10:53:37;;;;;;;4.68;3.85;;;27.20;53.00;;;;;;5112888;28;20084;-70
2022/07/30 10:56:15;;;;;;;4.13;3.80;;;27.20;53.70;;;;;;5109642;28;20655;-71
2022/07/30 10:59:16;;;;;;;7.00;4.38;;;27.20;54.40;;;;;;5108800;28;20030;-70
2022/07/30 11:01:48;;;;;;;6.63;4.70;;;27.20;53.10;;;;;;5058692;28;20020;-70
2022/07/30 11:04:23;;;;;;;5.03;3.58;;;27.30;53.60;;;;;;5058714;28;20032;-72
2022/07/30 11:06:51;;;;;;;4.72;4.13;;;27.40;53.30;;;;;;5060726;28;20025;-70
2022/07/30 11:09:41;;;;;;;7.32;4.47;;;27.50;53.50;;;;;;5062745;28;20044;-72
2022/07/30 11:12:08;;;;;;;4.97;3.85;;;27.60;51.30;;;;;;5045793;28;20041;-72
2022/07/30 11:14:57;;;;;;;7.47;4.20;;;27.60;51.30;;;;;;5054005;28;20036;-70
2022/07/30 11:17:23;;;;;;;5.53;4.40;;;27.60;52.20;;;;;;5052432;28;20597;-69
2022/07/30 11:20:01;;;;;;;10.88;4.78;;;27.60;50.20;;;;;;5036525;28;20471;-71
2022/07/30 11:22:37;;;;;;;5.25;4.20;;;27.50;51.10;;;;;;5056147;28;20557;-70
2022/07/30 11:25:23;;;;;;;4.20;3.80;;;27.50;50.50;;;;;;5055796;28;20501;-74
2022/07/30 11:27:50;;;;;;;5.72;3.92;;;27.40;50.60;;;;;;5042865;28;20133;-71
2022/07/30 11:30:15;;;;;;;15.85;3.60;;;27.50;51.20;;;;;;5055764;28;20036;-70
2022/07/30 11:32:42;;;;;;;4.75;4.10;;;27.50;52.40;;;;;;5049968;28;20040;-73
2022/07/30 11:35:17;;;;;;;7.30;4.82;;;27.60;50.40;;;;;;5057782;28;20032;-71
2022/07/30 11:37:58;;;;;;;4.65;4.07;;;27.60;50.20;;;;;;5061566;28;20020;-71
2022/07/30 11:40:44;;;;;;;6.10;4.30;;;27.70;50.70;;;;;;5071467;28;20555;-69
2022/07/30 11:43:31;;;;;;;4.68;4.15;;;27.80;51.50;;;;;;5059947;28;20032;-73
2022/07/30 11:46:22;;;;;;;7.00;4.10;;;27.80;50.70;;;;;;5073494;28;20023;-73
2022/07/30 11:49:07;;;;;;;5.90;4.28;;;27.90;51.30;;;;;;5063966;28;20067;-70
2022/07/30 11:51:44;;;;;;;5.05;4.55;;;27.90;50.90;;;;;;5073172;28;20020;-72
2022/07/30 11:54:11;;;;;;;5.60;5.00;;;28.00;50.60;;;;;;5068855;28;20056;-74
2022/07/30 11:56:51;;;;;;;7.80;4.78;;;27.90;50.50;;;;;;5063942;28;20115;-70
2022/07/30 11:59:16;;;;;;;7.85;5.70;;;28.00;49.80;;;;;;5063254;28;20025;-70
2022/07/30 12:01:42;;;;;;;6.03;4.82;;;28.10;51.40;;;;;;5073333;28;20071;-71
2022/07/30 12:04:08;;;;;;;6.53;5.55;;;28.30;50.50;;;;;;5064277;28;20025;-71
2022/07/30 12:06:46;;;;;;;19.83;13.57;;;28.40;51.50;;;;;;5069231;28;20078;-71
2022/07/30 12:09:21;;;;;;;15.15;8.48;;;28.20;64.80;;;;;;5056385;28;20074;-70
2022/07/30 12:11:46;;;;;;;11.73;10.63;;;27.70;65.20;;;;;;5061245;28;20024;-71
2022/07/30 12:14:12;;;;;;;8.57;7.78;;;27.30;66.90;;;;;;5072470;28;20034;-71
2022/07/30 12:16:41;;;;;;;9.07;7.95;;;26.80;67.20;;;;;;5071085;28;20115;-71
2022/07/30 12:19:06;;;;;;;8.32;7.50;;;26.30;68.10;;;;;;5070427;28;20027;-70
2022/07/30 12:21:33;;;;;;;8.13;7.32;;;25.90;70.30;;;;;;5091737;28;20400;-70
2022/07/30 12:24:01;;;;;;;8.88;8.07;;;25.60;72.50;;;;;;5113217;28;20054;-69
2022/07/30 12:26:29;;;;;;;8.35;7.57;;;25.30;74.90;;;;;;5110161;28;20022;-70
2022/07/30 12:29:01;;;;;;;9.35;8.38;;;25.10;77.20;;;;;;5111919;28;20027;-70
2022/07/30 12:31:27;;;;;;;8.32;7.57;;;25.00;78.70;;;;;;5105001;28;20020;-70
2022/07/30 12:33:55;;;;;;;8.43;7.45;;;25.00;80.10;;;;;;5112974;28;20020;-71
2022/07/30 12:36:32;;;;;;;8.13;7.35;;;25.00;81.30;;;;;;5109954;28;20072;-69
2022/07/30 12:39:00;;;;;;;12.30;7.38;;;25.00;82.10;;;;;;5107487;28;20110;-69
2022/07/30 12:41:43;;;;;;;7.22;6.60;;;25.00;81.60;;;;;;5106330;28;20019;-69
2022/07/30 12:44:09;;;;;;;7.43;6.72;;;25.10;82.10;;;;;;5103206;28;20024;-70
2022/07/30 12:46:40;;;;;;;7.57;6.72;;;25.20;82.20;;;;;;5109631;28;20105;-69
2022/07/30 12:49:06;;;;;;;8.57;7.00;;;25.10;78.50;;;;;;5110826;28;20053;-70
2022/07/30 12:51:36;;;;;;;5.80;5.18;;;25.00;77.30;;;;;;5111622;28;20073;-69
2022/07/30 12:54:15;;;;;;;5.55;5.05;;;24.90;74.30;;;;;;5109463;28;20020;-69